createdAt,value
2023-09-22T00:00:12.430Z,3.88
2023-09-22T00:02:41.480Z,3.53
2023-09-22T00:05:13.498Z,5.40
2023-09-22T00:07:44.052Z,4.93
2023-09-22T00:10:14.181Z,3.35
2023-09-22T00:12:42.945Z,5.40
2023-09-22T00:15:11.333Z,4.20
2023-09-22T00:17:39.317Z,4.60
2023-09-22T00:20:12.946Z,4.70
2023-09-22T00:22:40.327Z,5.07
2023-09-22T00:25:09.505Z,5.60
2023-09-22T00:27:37.549Z,5.05
2023-09-22T00:30:06.838Z,6.15
2023-09-22T00:32:34.598Z,5.43
2023-09-22T00:35:01.690Z,4.75
2023-09-22T00:37:29.388Z,4.22
2023-09-22T00:39:56.415Z,5.95
2023-09-22T00:42:23.722Z,5.72
2023-09-22T00:44:50.868Z,4.80
2023-09-22T00:47:19.324Z,4.97
2023-09-22T00:49:49.753Z,6.10
2023-09-22T00:52:20.244Z,7.65
2023-09-22T00:54:49.325Z,5.15
2023-09-22T00:57:18.436Z,6.07
2023-09-22T00:59:48.639Z,6.05
2023-09-22T01:02:15.763Z,5.50
2023-09-22T01:04:42.903Z,5.80
2023-09-22T01:07:11.180Z,6.35
2023-09-22T01:09:38.787Z,6.95
2023-09-22T01:12:06.383Z,5.63
2023-09-22T01:14:33.425Z,4.95
2023-09-22T01:17:00.414Z,4.25
2023-09-22T01:19:27.800Z,4.70
2023-09-22T01:21:57.348Z,4.72
2023-09-22T01:24:28.318Z,6.82
2023-09-22T01:26:55.648Z,5.10
2023-09-22T01:29:22.882Z,4.50
2023-09-22T01:31:49.964Z,4.35
2023-09-22T01:34:17.305Z,5.40
2023-09-22T01:36:44.504Z,5.28
2023-09-22T01:39:16.140Z,5.50
2023-09-22T01:41:44.432Z,7.35
2023-09-22T01:44:12.219Z,4.88
2023-09-22T01:46:39.339Z,4.00
2023-09-22T01:49:06.694Z,4.90
2023-09-22T01:51:33.931Z,4.40
2023-09-22T01:54:01.499Z,4.20
2023-09-22T01:56:28.557Z,5.00
2023-09-22T01:58:55.524Z,3.80
2023-09-22T02:01:23.565Z,3.33
2023-09-22T02:03:53.700Z,3.65
2023-09-22T02:06:23.119Z,3.13
2023-09-22T02:08:50.228Z,3.67
2023-09-22T02:11:17.571Z,3.33
2023-09-22T02:13:45.101Z,3.55
2023-09-22T02:16:12.935Z,3.50
2023-09-22T02:18:39.957Z,2.00
2023-09-22T02:21:07.729Z,2.28
2023-09-22T02:23:35.176Z,3.25
2023-09-22T02:26:10.396Z,2.47
2023-09-22T02:28:38.500Z,2.00
2023-09-22T02:31:05.519Z,2.45
2023-09-22T02:33:32.964Z,2.45
2023-09-22T02:36:01.680Z,2.67
2023-09-22T02:38:28.741Z,2.63
2023-09-22T02:40:55.714Z,2.33
2023-09-22T02:43:22.729Z,1.15
2023-09-22T02:45:51.239Z,1.40
2023-09-22T02:48:18.346Z,1.23
2023-09-22T02:50:46.582Z,0.80
2023-09-22T02:53:13.686Z,4.05
2023-09-22T02:55:40.921Z,0.65
2023-09-22T02:58:10.194Z,1.27
2023-09-22T03:00:37.553Z,0.47
2023-09-22T03:03:05.265Z,0.30
2023-09-22T03:05:32.516Z,1.95
2023-09-22T03:07:59.893Z,1.40
2023-09-22T03:10:27.216Z,0.85
2023-09-22T03:12:54.705Z,0.22
2023-09-22T03:15:23.611Z,1.20
2023-09-22T03:17:51.282Z,0.50
2023-09-22T03:20:19.033Z,0.38
2023-09-22T03:22:47.497Z,1.45
2023-09-22T03:25:16.691Z,0.60
2023-09-22T03:27:45.028Z,0.10
2023-09-22T03:30:16.735Z,0.80
2023-09-22T03:32:44.533Z,1.02
2023-09-22T03:35:15.379Z,0.50
2023-09-22T03:37:42.792Z,0.40
2023-09-22T03:40:22.082Z,0.17
2023-09-22T03:42:49.127Z,1.70
2023-09-22T03:45:16.558Z,2.72
2023-09-22T03:47:43.638Z,0.90
2023-09-22T03:50:12.252Z,0.32
2023-09-22T03:52:41.933Z,0.20
2023-09-22T03:55:13.833Z,0.70
2023-09-22T03:57:43.255Z,0.20
2023-09-22T04:00:21.203Z,1.10
2023-09-22T04:03:54.776Z,0.30
2023-09-22T04:06:21.956Z,0.20
2023-09-22T04:08:49.426Z,0.20
2023-09-22T04:11:16.416Z,0.47
2023-09-22T04:13:43.373Z,0.73
2023-09-22T04:16:10.449Z,0.25
2023-09-22T04:18:37.664Z,0.57
2023-09-22T04:21:06.194Z,0.20
2023-09-22T04:23:36.072Z,0.22
2023-09-22T04:26:10.808Z,0.20
2023-09-22T04:28:38.480Z,1.25
2023-09-22T04:31:05.786Z,0.30
2023-09-22T04:33:33.573Z,0.50
2023-09-22T04:36:00.694Z,0.30
2023-09-22T04:38:27.658Z,1.65
2023-09-22T04:40:58.184Z,0.73
2023-09-22T04:43:25.217Z,4.22
2023-09-22T04:45:52.529Z,0.77
2023-09-22T04:48:21.791Z,2.05
2023-09-22T04:50:55.833Z,0.30
2023-09-22T04:53:22.858Z,0.28
2023-09-22T04:56:04.789Z,0.80
2023-09-22T04:58:32.149Z,0.50
2023-09-22T05:01:04.266Z,0.40
2023-09-22T05:03:32.755Z,1.02
2023-09-22T05:06:12.497Z,0.40
2023-09-22T05:08:44.166Z,1.13
2023-09-22T05:11:12.641Z,1.13
2023-09-22T05:13:39.678Z,0.55
2023-09-22T05:16:08.040Z,0.47
2023-09-22T05:18:35.798Z,0.73
2023-09-22T05:21:05.498Z,2.15
2023-09-22T05:23:36.007Z,0.90
2023-09-22T05:26:08.857Z,0.73
2023-09-22T05:28:37.147Z,1.02
2023-09-22T05:31:08.527Z,0.43
2023-09-22T05:33:40.606Z,0.50
2023-09-22T05:36:07.833Z,0.25
2023-09-22T05:38:34.900Z,0.75
2023-09-22T05:41:03.708Z,0.73
2023-09-22T05:43:33.482Z,0.30
2023-09-22T05:46:00.877Z,0.35
2023-09-22T05:48:28.474Z,1.05
2023-09-22T05:51:01.446Z,0.60
2023-09-22T05:53:30.542Z,0.65
2023-09-22T05:56:09.225Z,1.00
2023-09-22T05:58:36.926Z,1.55
2023-09-22T06:01:15.320Z,0.45
2023-09-22T06:03:43.578Z,1.00
2023-09-22T06:06:12.513Z,0.70
2023-09-22T06:08:40.840Z,0.52
2023-09-22T06:11:09.153Z,1.02
2023-09-22T06:13:36.551Z,0.90
2023-09-22T06:16:05.593Z,1.10
2023-09-22T06:18:33.074Z,2.28
2023-09-22T06:21:01.832Z,0.85
2023-09-22T06:23:29.334Z,1.10
2023-09-22T06:26:03.073Z,0.98
2023-09-22T06:28:31.209Z,0.60
2023-09-22T06:31:02.812Z,0.80
2023-09-22T06:33:34.422Z,0.38
2023-09-22T06:36:07.006Z,0.73
2023-09-22T06:38:42.510Z,3.72
2023-09-22T06:41:24.435Z,0.93
2023-09-22T06:43:56.566Z,0.70
2023-09-22T06:46:26.811Z,2.85
2023-09-22T06:48:54.216Z,0.90
2023-09-22T06:51:21.266Z,1.75
2023-09-22T06:53:49.599Z,1.25
2023-09-22T06:56:19.613Z,1.10
2023-09-22T06:58:49.023Z,0.88
2023-09-22T07:01:18.389Z,0.70
2023-09-22T07:03:46.988Z,1.00
2023-09-22T07:06:16.879Z,0.90
2023-09-22T07:08:47.405Z,0.60
2023-09-22T07:11:15.384Z,1.33
2023-09-22T07:13:42.824Z,0.77
2023-09-22T07:16:11.438Z,1.27
2023-09-22T07:18:40.019Z,0.93
2023-09-22T07:21:10.908Z,1.27
2023-09-22T07:23:38.381Z,0.68
2023-09-22T07:26:07.263Z,0.93
2023-09-22T07:28:36.840Z,0.82
2023-09-22T07:31:22.220Z,2.75
2023-09-22T07:33:50.384Z,0.63
2023-09-22T07:36:18.383Z,0.80
2023-09-22T07:38:46.365Z,1.10
2023-09-22T07:41:13.990Z,1.02
2023-09-22T07:43:42.172Z,1.63
2023-09-22T07:46:10.011Z,2.00
2023-09-22T07:48:38.146Z,1.60
2023-09-22T07:51:07.392Z,2.45
2023-09-22T07:53:37.901Z,0.80
2023-09-22T07:56:06.434Z,0.80
2023-09-22T07:58:33.478Z,1.55
2023-09-22T08:01:01.173Z,2.35
2023-09-22T08:03:29.188Z,1.30
2023-09-22T08:05:56.647Z,1.73
2023-09-22T08:08:26.007Z,2.50
2023-09-22T08:10:55.025Z,1.70
2023-09-22T08:13:23.015Z,1.65
2023-09-22T08:15:50.755Z,0.55
2023-09-22T08:18:18.076Z,0.70
2023-09-22T08:20:45.179Z,0.73
2023-09-22T08:23:12.274Z,1.20
2023-09-22T08:25:39.816Z,1.85
2023-09-22T08:28:06.941Z,0.70
2023-09-22T08:30:37.599Z,0.73
2023-09-22T08:33:05.287Z,0.70
2023-09-22T08:35:32.712Z,0.95
2023-09-22T08:38:02.419Z,1.25
2023-09-22T08:40:31.403Z,1.33
2023-09-22T08:43:04.928Z,0.70
2023-09-22T08:45:32.471Z,1.77
2023-09-22T08:47:59.719Z,1.23
2023-09-22T08:50:27.399Z,0.90
2023-09-22T08:52:54.494Z,1.60
2023-09-22T08:55:23.066Z,1.30
2023-09-22T08:57:55.223Z,1.10
2023-09-22T09:00:23.805Z,1.45
2023-09-22T09:02:53.096Z,1.52
2023-09-22T09:05:27.046Z,1.52
2023-09-22T09:07:56.833Z,1.13
2023-09-22T09:10:34.117Z,0.70
2023-09-22T09:13:03.068Z,1.60
2023-09-22T09:15:46.652Z,0.95
2023-09-22T09:18:17.225Z,1.70
2023-09-22T09:20:49.939Z,1.20
2023-09-22T09:23:17.561Z,1.17
2023-09-22T09:25:46.117Z,1.33
2023-09-22T09:28:16.088Z,1.80
2023-09-22T09:30:55.723Z,1.00
2023-09-22T09:33:28.580Z,1.85
2023-09-22T09:35:57.490Z,1.30
2023-09-22T09:38:30.346Z,1.45
2023-09-22T09:41:00.012Z,1.05
2023-09-22T09:43:27.380Z,1.15
2023-09-22T09:46:00.660Z,2.10
2023-09-22T09:48:30.175Z,1.05
2023-09-22T09:51:01.823Z,0.90
2023-09-22T09:53:36.896Z,2.30
2023-09-22T09:56:07.024Z,1.35
2023-09-22T09:58:35.883Z,2.40
2023-09-22T10:01:09.033Z,1.00
2023-09-22T10:03:41.492Z,1.50
2023-09-22T10:06:12.685Z,0.70
2023-09-22T10:08:39.828Z,1.55
2023-09-22T10:11:14.307Z,1.02
2023-09-22T10:13:41.366Z,1.15
2023-09-22T10:16:12.686Z,2.42
2023-09-22T10:18:57.182Z,2.75
2023-09-22T10:21:30.926Z,1.83
2023-09-22T10:24:16.591Z,1.05
2023-09-22T10:27:09.538Z,1.77
2023-09-22T10:29:36.863Z,1.35
2023-09-22T10:32:19.830Z,2.03
2023-09-22T10:35:12.657Z,2.10
2023-09-22T10:37:58.313Z,1.73
2023-09-22T10:40:25.700Z,1.60
2023-09-22T10:42:53.064Z,1.17
2023-09-22T10:45:29.776Z,1.70
2023-09-22T10:48:01.782Z,1.17
2023-09-22T10:50:33.426Z,1.35
2023-09-22T10:53:05.128Z,0.90
2023-09-22T10:55:39.358Z,1.33
2023-09-22T10:58:09.678Z,1.77
2023-09-22T11:00:41.396Z,1.73
2023-09-22T11:03:10.818Z,1.45
2023-09-22T11:05:45.491Z,1.80
2023-09-22T11:08:19.038Z,0.93
2023-09-22T11:10:50.996Z,2.28
2023-09-22T11:13:19.703Z,1.33
2023-09-22T11:15:47.906Z,1.63
2023-09-22T11:18:29.211Z,2.25
2023-09-22T11:20:58.083Z,0.98
2023-09-22T11:23:26.940Z,1.30
2023-09-22T11:25:59.101Z,2.53
2023-09-22T11:28:29.104Z,1.77
2023-09-22T11:31:06.000Z,1.60
2023-09-22T11:33:33.036Z,0.80
2023-09-22T11:36:00.685Z,1.50
2023-09-22T11:38:29.132Z,1.65
2023-09-22T11:41:13.910Z,4.00
2023-09-22T11:43:45.510Z,2.07
2023-09-22T11:46:17.229Z,2.30
2023-09-22T11:48:57.487Z,1.60
2023-09-22T11:51:50.149Z,2.05
2023-09-22T11:54:38.152Z,1.60
2023-09-22T11:57:06.206Z,1.88
2023-09-22T11:59:35.713Z,2.03
2023-09-22T12:02:06.798Z,1.10
2023-09-22T12:04:40.180Z,4.00
2023-09-22T12:07:07.651Z,1.33
2023-09-22T12:09:34.846Z,1.75
2023-09-22T12:12:01.895Z,1.30
2023-09-22T12:14:29.688Z,1.95
2023-09-22T12:16:57.194Z,1.58
2023-09-22T12:19:26.674Z,1.33
2023-09-22T12:21:54.200Z,1.40
2023-09-22T12:24:23.978Z,1.15
2023-09-22T12:26:52.010Z,1.80
2023-09-22T12:29:19.188Z,1.92
2023-09-22T12:31:46.826Z,2.92
2023-09-22T12:34:14.582Z,1.42
2023-09-22T12:36:42.135Z,1.33
2023-09-22T12:39:11.938Z,1.35
2023-09-22T12:41:40.279Z,1.65
2023-09-22T12:44:07.465Z,2.03
2023-09-22T12:46:34.679Z,1.48
2023-09-22T12:49:01.846Z,2.85
2023-09-22T12:51:28.823Z,1.95
2023-09-22T12:53:56.923Z,2.50
2023-09-22T12:56:24.912Z,1.63
2023-09-22T12:58:55.158Z,1.52
2023-09-22T13:01:22.280Z,2.33
2023-09-22T13:03:49.856Z,2.60
2023-09-22T13:06:17.042Z,2.83
2023-09-22T13:08:44.987Z,1.75
2023-09-22T13:11:21.139Z,2.40
2023-09-22T13:13:50.462Z,3.20
2023-09-22T13:16:19.654Z,3.80
2023-09-22T13:18:49.408Z,2.47
2023-09-22T13:21:16.931Z,1.65
2023-09-22T13:23:45.577Z,3.70
2023-09-22T13:26:22.265Z,2.33
2023-09-22T13:28:51.769Z,1.83
2023-09-22T13:31:19.098Z,2.70
2023-09-22T13:33:46.364Z,1.55
2023-09-22T13:36:18.311Z,1.15
2023-09-22T13:38:45.894Z,1.60
2023-09-22T13:41:14.146Z,1.30
2023-09-22T13:43:43.890Z,1.70
2023-09-22T13:46:16.886Z,1.40
2023-09-22T13:48:44.384Z,3.33
2023-09-22T13:51:11.422Z,1.77
2023-09-22T13:53:41.955Z,2.15
2023-09-22T13:56:19.756Z,2.42
2023-09-22T13:58:51.684Z,3.00
2023-09-22T14:01:22.705Z,0.93
2023-09-22T14:03:52.007Z,0.80
2023-09-22T14:06:24.319Z,1.80
2023-09-22T14:08:54.788Z,0.80
2023-09-22T14:11:22.412Z,1.35
2023-09-22T14:13:49.778Z,1.75
2023-09-22T14:16:20.824Z,1.75
2023-09-22T14:18:48.839Z,2.22
2023-09-22T14:21:15.851Z,2.03
2023-09-22T14:23:42.986Z,2.53
2023-09-22T14:26:16.340Z,0.93
2023-09-22T14:28:43.828Z,1.17
2023-09-22T14:31:21.043Z,1.20
2023-09-22T14:33:50.569Z,1.90
2023-09-22T14:36:19.649Z,2.13
2023-09-22T14:38:47.460Z,2.35
2023-09-22T14:41:16.447Z,2.38
2023-09-22T14:43:44.447Z,1.50
2023-09-22T14:46:16.658Z,1.52
2023-09-22T14:48:45.348Z,2.30
2023-09-22T14:51:13.505Z,1.52
2023-09-22T14:53:43.214Z,1.60
2023-09-22T14:56:10.541Z,1.17
2023-09-22T14:58:37.778Z,1.73
2023-09-22T15:01:10.007Z,1.38
2023-09-22T15:03:40.350Z,1.58
2023-09-22T15:06:07.698Z,0.85
2023-09-22T15:08:34.865Z,1.08
2023-09-22T15:11:02.119Z,2.15
2023-09-22T15:15:57.272Z,1.45
2023-09-22T15:18:26.256Z,0.82
2023-09-22T15:21:05.009Z,2.45
2023-09-22T15:23:32.119Z,1.65
2023-09-22T15:25:59.213Z,1.80
2023-09-22T15:28:26.488Z,0.98
2023-09-22T15:30:53.821Z,1.05
2023-09-22T15:33:21.148Z,1.25
2023-09-22T15:35:48.250Z,1.00
2023-09-22T15:38:15.340Z,0.90
2023-09-22T15:41:02.389Z,1.50
2023-09-22T15:43:36.925Z,2.08
2023-09-22T15:46:05.172Z,1.60
2023-09-22T15:48:35.238Z,0.85
2023-09-22T15:51:05.403Z,1.92
2023-09-22T15:53:37.369Z,1.13
2023-09-22T15:56:05.074Z,1.42
2023-09-22T15:58:32.150Z,1.23
2023-09-22T16:01:00.339Z,0.82
2023-09-22T16:03:28.114Z,1.20
2023-09-22T16:05:56.214Z,1.02
2023-09-22T16:08:25.413Z,2.38
2023-09-22T16:10:52.406Z,2.20
2023-09-22T16:13:26.738Z,2.35
2023-09-22T16:15:57.848Z,1.42
2023-09-22T16:18:28.170Z,2.17
2023-09-22T16:20:55.226Z,1.48
2023-09-22T16:23:22.279Z,1.08
2023-09-22T16:25:53.928Z,1.80
2023-09-22T16:28:22.490Z,1.00
2023-09-22T16:30:50.819Z,1.50
2023-09-22T16:33:18.301Z,0.82
2023-09-22T16:35:54.186Z,1.77
2023-09-22T16:38:21.739Z,1.05
2023-09-22T16:40:48.818Z,1.00
2023-09-22T16:43:15.778Z,1.30
2023-09-22T16:45:42.724Z,2.13
2023-09-22T16:48:09.880Z,0.90
2023-09-22T16:50:37.144Z,1.20
2023-09-22T16:53:05.114Z,4.50
2023-09-22T16:55:33.176Z,8.07
2023-09-22T16:58:00.225Z,6.10
2023-09-22T17:00:28.359Z,2.60
2023-09-22T17:02:55.714Z,3.42
2023-09-22T17:05:23.283Z,3.30
2023-09-22T17:07:50.470Z,1.90
2023-09-22T17:10:17.702Z,2.38
2023-09-22T17:12:44.741Z,1.80
2023-09-22T17:15:11.944Z,3.15
2023-09-22T17:17:39.157Z,3.38
2023-09-22T17:20:07.027Z,1.48
2023-09-22T17:22:35.573Z,1.52
2023-09-22T17:25:03.130Z,2.58
2023-09-22T17:27:30.719Z,1.30
2023-09-22T17:29:57.780Z,1.02
2023-09-22T17:32:25.215Z,2.40
2023-09-22T17:34:53.792Z,1.25
2023-09-22T17:37:21.033Z,1.58
2023-09-22T17:39:50.676Z,1.13
2023-09-22T17:42:19.829Z,1.95
2023-09-22T17:44:46.930Z,1.55
2023-09-22T17:47:15.176Z,3.20
2023-09-22T17:49:42.608Z,1.90
2023-09-22T17:52:09.627Z,3.65
2023-09-22T17:54:38.773Z,2.67
2023-09-22T17:57:06.518Z,1.98
2023-09-22T17:59:36.127Z,2.33
2023-09-22T18:02:03.702Z,2.25
2023-09-22T18:04:34.672Z,1.10
2023-09-22T18:07:01.970Z,1.75
2023-09-22T18:09:30.535Z,1.52
2023-09-22T18:11:58.356Z,1.40
2023-09-22T18:14:25.948Z,0.85
2023-09-22T18:16:53.238Z,1.52
2023-09-22T18:19:20.481Z,1.20
2023-09-22T18:21:47.683Z,1.35
2023-09-22T18:24:14.776Z,0.80
2023-09-22T18:26:41.957Z,1.40
2023-09-22T18:29:09.593Z,1.95
2023-09-22T18:31:38.471Z,2.55
2023-09-22T18:34:09.230Z,2.13
2023-09-22T18:36:36.503Z,1.15
2023-09-22T18:39:04.193Z,1.88
2023-09-22T18:41:31.236Z,1.52
2023-09-22T18:43:59.324Z,1.42
2023-09-22T18:46:27.200Z,1.45
2023-09-22T18:48:56.244Z,1.65
2023-09-22T18:51:23.908Z,2.05
2023-09-22T18:53:51.065Z,1.42
2023-09-22T18:56:21.558Z,1.30
2023-09-22T18:58:49.330Z,1.00
2023-09-22T19:01:17.157Z,1.25
2023-09-22T19:03:44.482Z,2.03
2023-09-22T19:06:14.973Z,2.08
2023-09-22T19:08:43.006Z,1.27
2023-09-22T19:11:15.176Z,1.15
2023-09-22T19:13:42.293Z,1.40
2023-09-22T19:16:10.469Z,1.05
2023-09-22T19:18:39.352Z,2.85
2023-09-22T19:21:08.020Z,1.42
2023-09-22T19:23:39.002Z,0.98
2023-09-22T19:26:11.282Z,2.05
2023-09-22T19:28:40.036Z,1.70
2023-09-22T19:31:10.890Z,1.25
2023-09-22T19:33:38.147Z,2.80
2023-09-22T19:36:05.764Z,1.05
2023-09-22T19:38:33.253Z,1.27
2023-09-22T19:41:00.371Z,1.83
2023-09-22T19:43:27.482Z,1.25
2023-09-22T19:45:54.686Z,1.13
2023-09-22T19:48:22.646Z,2.30
2023-09-22T19:50:52.038Z,2.03
2023-09-22T19:53:19.729Z,2.88
2023-09-22T19:55:46.881Z,1.20
2023-09-22T19:58:17.071Z,1.85
2023-09-22T20:00:45.196Z,1.20
2023-09-22T20:03:12.426Z,2.05
2023-09-22T20:05:39.765Z,1.45
2023-09-22T20:08:06.909Z,1.40
2023-09-22T20:10:35.594Z,1.63
2023-09-22T20:13:02.799Z,3.42
2023-09-22T20:15:29.859Z,1.75
2023-09-22T20:17:57.112Z,1.88
2023-09-22T20:20:24.220Z,2.10
2023-09-22T20:22:53.591Z,2.97
2023-09-22T20:25:22.988Z,2.72
2023-09-22T20:27:50.260Z,1.75
2023-09-22T20:30:17.501Z,2.55
2023-09-22T20:32:47.231Z,1.65
2023-09-22T20:35:15.643Z,1.73
2023-09-22T20:37:42.840Z,1.67
2023-09-22T20:40:10.626Z,1.73
2023-09-22T20:42:38.053Z,2.72
2023-09-22T20:45:08.983Z,1.65
2023-09-22T20:47:42.256Z,2.58
2023-09-22T20:50:09.893Z,1.63
2023-09-22T20:52:37.038Z,2.10
2023-09-22T20:55:05.222Z,2.47
2023-09-22T20:57:32.734Z,2.67
2023-09-22T21:00:02.380Z,3.28
2023-09-22T21:02:30.342Z,1.65
2023-09-22T21:04:57.445Z,2.42
2023-09-22T21:07:25.687Z,2.40
2023-09-22T21:09:55.157Z,1.92
2023-09-22T21:12:22.284Z,2.15
2023-09-22T21:14:53.457Z,1.70
2023-09-22T21:17:20.585Z,2.45
2023-09-22T21:19:48.659Z,2.28
2023-09-22T21:22:15.789Z,2.25
2023-09-22T21:24:42.779Z,2.38
2023-09-22T21:27:09.673Z,2.22
2023-09-22T21:29:37.612Z,1.67
2023-09-22T21:32:05.181Z,1.85
2023-09-22T21:34:33.171Z,2.38
2023-09-22T21:37:00.218Z,2.28
2023-09-22T21:39:27.808Z,1.83
2023-09-22T21:41:54.883Z,2.47
2023-09-22T21:44:26.076Z,1.77
2023-09-22T21:46:53.614Z,2.42
2023-09-22T21:49:21.985Z,1.73
2023-09-22T21:51:49.849Z,1.90
2023-09-22T21:54:19.316Z,1.85
2023-09-22T21:56:46.283Z,2.30
2023-09-22T21:59:13.392Z,1.30
2023-09-22T22:01:40.949Z,1.80
2023-09-22T22:04:09.260Z,2.05
2023-09-22T22:06:43.633Z,2.85
2023-09-22T22:09:12.869Z,2.50
2023-09-22T22:11:42.273Z,2.83
2023-09-22T22:14:15.383Z,2.88
2023-09-22T22:16:44.312Z,2.13
2023-09-22T22:19:11.456Z,2.17
2023-09-22T22:21:38.891Z,2.72
2023-09-22T22:24:07.417Z,2.05
2023-09-22T22:26:34.831Z,2.20
2023-09-22T22:29:02.321Z,1.77
2023-09-22T22:31:29.558Z,2.20
2023-09-22T22:33:59.037Z,2.78
2023-09-22T22:36:27.728Z,1.65
2023-09-22T22:38:55.062Z,1.90
2023-09-22T22:41:22.049Z,2.42
2023-09-22T22:43:49.034Z,1.80
2023-09-22T22:46:16.083Z,1.70
2023-09-22T22:48:45.641Z,2.40
2023-09-22T22:51:12.897Z,1.35
2023-09-22T22:53:39.857Z,1.65
2023-09-22T22:56:07.733Z,2.78
2023-09-22T22:58:36.702Z,2.50
2023-09-22T23:01:05.524Z,2.63
2023-09-22T23:03:34.329Z,2.00
2023-09-22T23:06:04.829Z,1.90
2023-09-22T23:08:34.570Z,1.40
2023-09-22T23:11:08.231Z,2.92
2023-09-22T23:13:37.265Z,1.63
2023-09-22T23:16:05.212Z,1.58
2023-09-22T23:18:34.532Z,2.22
2023-09-22T23:21:01.558Z,2.72
2023-09-22T23:23:32.363Z,4.32
2023-09-22T23:26:04.099Z,3.25
2023-09-22T23:28:31.993Z,2.13
2023-09-22T23:30:59.095Z,2.95
2023-09-22T23:33:27.085Z,1.40
2023-09-22T23:35:55.327Z,2.47
2023-09-22T23:38:23.590Z,1.50
2023-09-22T23:40:55.337Z,2.05
2023-09-22T23:43:24.749Z,1.63
2023-09-22T23:45:52.840Z,1.60
2023-09-22T23:48:19.849Z,1.38
2023-09-22T23:50:47.776Z,1.88
2023-09-22T23:53:15.426Z,1.50
2023-09-22T23:55:44.532Z,2.28
2023-09-22T23:58:11.667Z,2.28
